Arcen, Netherlands

3:54 PM CET on October 30, 2014 (GMT +0100)
Swolgen Kanakker | Change Station
CLOSE
Current Station
Personal Weather Station
Location: Swolgen, LIMBURG
Elevation: 66 ft
Nearby Weather Stations

Elev 66 ft 51.49 °N, 6.12 °E | Updated 13 seconds ago

Clear
Clear
62.4 °F
Feels Like 62.4 °F
N
0.0
Wind Variable Wind from South
Gusts 0.0 mph

Today
High -- | Low -- °F
--% Chance of Precip.
Yesterday
High -- | Low -- °F
Precip. -- in
7:24 AM 5:12 PM
Waxing Crescent, 44% visible
Pressure 30.18 in
Visibility -9999.0 miles
Clouds
Dew Point 56 °F
Humidity 79%
Rainfall 0.04 in
Snow Depth Not available.
UV 1.0 out of 12
Pollen Not available.
Air Quality Not available.
Flu Activity Not available.
METAR EDLN 301450Z 15005KT 100V180 CAVOK 16/14 Q1022 RMK ATIS Q

More Conditions Fewer Conditions

Pressure 30.18 in
Visibility -9999.0 miles
Clouds
Dew Point 56 °F
Humidity 79%
Rainfall 0.04 in
Snow Depth Not available.
UV 1.0 out of 12
Pollen Not available.
Air Quality Not available.
Flu Activity Not available.
METAR EDLN 301450Z 15005KT 100V180 CAVOK 16/14 Q1022 RMK ATIS Q

More Conditions Fewer Conditions

10-Day Weather Forecast

Almanac

Astronomy

Oct. 30, 2014 Rise Set
Actual Time
Civil Twilight
Nautical Twilight
Astronomical Twilight
Moon
Length of Visible Light
Length of Day
Tomorrow will be .
, % of the Moon is Illuminated

Today's Extremes

Country Highs Country Lows

Community

WunderPhotos

Upload Photos

1,766,379 photos uploaded!

WunderBlogs® & News

Nearby

Air Quality

  Air Quality AQ Index Pollutant
Not available.

Snow Depth

Station Depth Elevation

Earthquake Activity

City Distance Mag. Time & Date
Minimum magnitude displayed is 2.5.

Coastal Water Temperatures

Place Temperature

Nearby Weather Stations